Aérodrome :
LOGIN :

S'inscrire | Disclaimer

   EN    FR    IT 

 










Légende :    VFR   VFR Marginal   IFR   IFR Intensif   IFR Très Intensif
Visi : 
Plafond : 
>= 8 km
>= 3000ft
5 à 8 km
1000 à 3000 ft
1500m à 5 km
500 à 1000 ft
800 à 1500m
200 à 500 ft
< 800m
< 200 ft
Symboles :   Orages  Brouillard  Fortes neiges  Fortes précipitations  Vent > 20 kt
SIGMETs :   Divers  Orages  Givrage  Turbulence  Onde Orograph.  Cendres Volcan.







- Altitude de l'aérodrome : 55 ft
- Code IATA : DSA
- Voir les cartes d'approche


EGCN - Robin Hood Doncaster Sheffield

DERNIER METAR :
  • 221250Z 22019KT 9999 FEW028 SCT036 21/15 Q1021

METARs EXPIRÉS :
  • 221220Z 21013KT 9999 FEW032 21/15 Q1021
  • 221150Z 20014KT 9999 SCT031 BKN036 20/15 Q1021
  • 221120Z 22013KT 9999 SCT034 BKN039 20/15 Q1021
  • 221050Z 21013KT 9999 FEW028 SCT033 BKN039 20/15 Q1021
  • 221020Z 20014KT 9999 SCT026 BKN032 19/14 Q1021

TAF TAF EGCN
Valide du 22 à 12h jusqu'au 23 à 12h UTC


221105Z 2212/2312 20012KT 9999 FEW040
PROB30
TEMPO 2212/2221 21015G25KT
BECMG 2221/2224 26005KT
PROB30
TEMPO 2223/2309 BKN012
Pas de NOTAMs connus pour ce terrain.



MET'MAP, la Météo Aéronautique d'un coup d'oeil ! - Copyright ORBIFLY Décembre 2007 - Disclaimer

ORBIFLY MET'MAP TEAM :

Programmation & Développement : Alexandra Zaïnal
Conception & Développement : Baudouin d'Aumeries
Co-Programmation & Développement : Marc-Olivier Méhu
Soutien technique & logistique : Manuel Goepfert

Contact : metmap@orbifly.com




SOURCES & CREDITS :

   NOAA